Paul R Tregurtha — WYR4481 — position and weather

sailwx.info

Track history (hours):
 
Tides and Currents Weather Stations Pressure Air Temp Water Temp Dewpoint Dewpoint Depression Visibility Wind Speed Wind Dir Waves Ship Positions

Paul R Tregurtha

Owner: THE INTERLAKE STEAMSHIP COMPANY, Middleburg Heights, OH. More information available from US FCC via Universal Licensing System and Coast Guard Vessel Documentation Center.

Last reported at 2018-May-21 08:00 UTC. Time now 2018-May-21 08:48 UTC.
Position N 44°48' W 087°24'.

Length 309 m; draft 7 m.

Type: Cargo ship. MMSI: 366904940.

Wind from 010 at 1 knots

Barometer 1022.5 mb
Air temperature 6.7 ° C
Water temperature 12.7 ° C

Date/timePositionNaut miles runAvg speedWind from/ knotsBaromVisibWave heightAir tempDewpointWater temp
2018-May-21 08:00N 44°48' W 087°24'0 0.0 010 / 11022.5 6.7 12.7
2018-May-21 07:00N 44°48' W 087°24'0 0.0 190 / 21022.8 6.8 12.6
2018-May-21 06:00N 44°48' W 087°24'0 0.0 060 / 11022.8 7.0 12.5
2018-May-21 05:00N 44°48' W 087°24'0 0.0 270 / 11023.2 7.1 12.5
2018-May-21 04:00N 44°48' W 087°24'0 0.0 270 1022.5 8.2 12.5
2018-May-21 03:00N 44°48' W 087°24'0 0.0 100 / 11022.5 9.8 12.6
2018-May-21 02:00N 44°48' W 087°24'0 0.0 100 / 21022.1 11.2 12.7
2018-May-21 01:00N 44°48' W 087°24'0 0.0 150 / 51022.1 12.1 12.6
2018-May-21 00:00N 44°48' W 087°24'0 0.0 130 / 41022.1 15.9 12.4
2018-May-20 23:00N 44°48' W 087°24'0 0.0 130 / 31022.5 15.9 12.5
2018-May-20 22:00N 44°48' W 087°24'0 0.0 120 / 41022.8 16.4 12.5
2018-May-20 21:00N 44°48' W 087°24'0 0.0 050 / 61023.2 16.3 12.4
2018-May-20 20:00N 44°48' W 087°24'0 0.0 300 / 51023.8 11.8 12.7
2018-May-20 19:00N 44°48' W 087°24'0 0.0 340 / 91024.2 9.5 12.6
2018-May-20 18:00N 44°48' W 087°24'   350 / 101024.2 8.8 12.5
Track history (hours):
 
Tides and Currents Weather Stations Pressure Air Temp Water Temp Dewpoint Dewpoint Depression Visibility Wind Speed Wind Dir Waves Ship Positions

Paul R Tregurtha

Owner: THE INTERLAKE STEAMSHIP COMPANY, Middleburg Heights, OH. More information available from US FCC via Universal Licensing System and Coast Guard Vessel Documentation Center.

Last reported at 2018-May-21 08:00 UTC. Time now 2018-May-21 08:48 UTC.
Position N 44°48' W 087°24'.

Length 309 m; draft 7 m.

Type: Cargo ship. MMSI: 366904940.

Wind from 010 at 1 knots

Barometer 1022.5 mb
Air temperature 6.7 ° C
Water temperature 12.7 ° C

Date/timePositionNaut miles runAvg speedWind from/ knotsBaromVisibWave heightAir tempDewpointWater temp
2018-May-21 08:00N 44°48' W 087°24'0 0.0 010 / 11022.5 6.7 12.7
2018-May-21 07:00N 44°48' W 087°24'0 0.0 190 / 21022.8 6.8 12.6
2018-May-21 06:00N 44°48' W 087°24'0 0.0 060 / 11022.8 7.0 12.5
2018-May-21 05:00N 44°48' W 087°24'0 0.0 270 / 11023.2 7.1 12.5
2018-May-21 04:00N 44°48' W 087°24'0 0.0 270 1022.5 8.2 12.5
2018-May-21 03:00N 44°48' W 087°24'0 0.0 100 / 11022.5 9.8 12.6
2018-May-21 02:00N 44°48' W 087°24'0 0.0 100 / 21022.1 11.2 12.7
2018-May-21 01:00N 44°48' W 087°24'0 0.0 150 / 51022.1 12.1 12.6
2018-May-21 00:00N 44°48' W 087°24'0 0.0 130 / 41022.1 15.9 12.4
2018-May-20 23:00N 44°48' W 087°24'0 0.0 130 / 31022.5 15.9 12.5
2018-May-20 22:00N 44°48' W 087°24'0 0.0 120 / 41022.8 16.4 12.5
2018-May-20 21:00N 44°48' W 087°24'0 0.0 050 / 61023.2 16.3 12.4
2018-May-20 20:00N 44°48' W 087°24'0 0.0 300 / 51023.8 11.8 12.7
2018-May-20 19:00N 44°48' W 087°24'0 0.0 340 / 91024.2 9.5 12.6
2018-May-20 18:00N 44°48' W 087°24'   350 / 101024.2 8.8 12.5

Dump ship's entire track history